createdAt,value
2019-01-31T00:00:13.492Z,98689.81
2019-01-31T00:03:04.002Z,98687.38
2019-01-31T00:05:47.532Z,98690.65
2019-01-31T00:08:46.428Z,98683.23
2019-01-31T00:11:57.324Z,98687.58
2019-01-31T00:14:47.915Z,98690.58
2019-01-31T00:17:40.366Z,98693.86
2019-01-31T00:20:44.612Z,98697.55
2019-01-31T00:23:45.057Z,98693.95
2019-01-31T00:26:25.111Z,98694.18
2019-01-31T00:29:03.454Z,98704.69
2019-01-31T00:31:51.095Z,98698.31
2019-01-31T00:34:41.241Z,98706.13
2019-01-31T00:37:25.305Z,98711.44
2019-01-31T00:40:19.503Z,98709.27
2019-01-31T00:43:17.071Z,98713.48
2019-01-31T00:46:24.252Z,98716.32
2019-01-31T00:49:28.108Z,98726.98
2019-01-31T00:52:33.454Z,98723.98
2019-01-31T00:55:19.095Z,98723.14
2019-01-31T00:58:24.748Z,98716.23
2019-01-31T01:01:42.204Z,98713.73
2019-01-31T01:04:50.547Z,98713.11
2019-01-31T01:08:00.417Z,98717.48
2019-01-31T01:11:17.877Z,98719.00
2019-01-31T01:14:16.134Z,98719.44
2019-01-31T01:17:19.856Z,98722.45
2019-01-31T01:20:15.344Z,98733.14
2019-01-31T01:23:14.531Z,98734.00
2019-01-31T01:26:17.306Z,98735.31
2019-01-31T01:29:23.714Z,98736.02
2019-01-31T01:32:18.002Z,98738.77
2019-01-31T01:35:04.692Z,98735.48
2019-01-31T01:38:17.128Z,98732.17
2019-01-31T01:41:00.381Z,98735.27
2019-01-31T01:44:05.598Z,98741.23
2019-01-31T01:46:49.342Z,98745.13
2019-01-31T01:49:31.011Z,98742.61
2019-01-31T01:52:33.406Z,98742.38
2019-01-31T01:55:45.346Z,98755.91
2019-01-31T01:58:34.685Z,98749.69
2019-01-31T02:01:40.737Z,98751.11
2019-01-31T02:04:22.659Z,98754.39
2019-01-31T02:07:24.567Z,98751.39
2019-01-31T02:10:22.038Z,98754.65
2019-01-31T02:13:28.980Z,98756.42
2019-01-31T02:16:46.043Z,98758.61
2019-01-31T02:19:54.566Z,98757.00
2019-01-31T02:22:33.749Z,98759.65
2019-01-31T02:25:15.308Z,98753.63
2019-01-31T02:28:14.991Z,98748.88
2019-01-31T02:31:14.987Z,98755.23
2019-01-31T02:34:20.164Z,98759.08
2019-01-31T02:37:14.359Z,98752.78
2019-01-31T02:40:06.371Z,98754.04
2019-01-31T02:42:47.400Z,98754.04
2019-01-31T02:45:35.639Z,98755.54
2019-01-31T02:48:24.959Z,98754.88
2019-01-31T02:51:32.327Z,98750.19
2019-01-31T02:54:16.813Z,98758.77
2019-01-31T02:57:07.407Z,98757.48
2019-01-31T03:00:19.203Z,98756.02
2019-01-31T03:03:27.623Z,98758.05
2019-01-31T03:06:17.333Z,98765.64
2019-01-31T03:09:11.996Z,98765.02
2019-01-31T03:12:16.005Z,98765.47
2019-01-31T03:14:54.505Z,98765.22
2019-01-31T03:17:50.041Z,98761.27
2019-01-31T03:20:40.972Z,98756.80
2019-01-31T03:23:58.688Z,98763.70
2019-01-31T03:26:50.699Z,98763.44
2019-01-31T03:29:59.468Z,98764.89
2019-01-31T03:33:03.143Z,98766.30
2019-01-31T03:36:11.645Z,98768.06
2019-01-31T03:38:48.654Z,98763.73
2019-01-31T03:41:44.966Z,98765.87
2019-01-31T03:44:40.724Z,98775.63
2019-01-31T03:47:21.089Z,98767.58
2019-01-31T03:50:23.358Z,98767.61
2019-01-31T03:53:27.100Z,98778.55
2019-01-31T03:56:35.990Z,98777.81
2019-01-31T03:59:21.954Z,98793.14
2019-01-31T04:02:27.729Z,98793.14
2019-01-31T04:05:59.976Z,98801.41
2019-01-31T04:08:29.756Z,98797.06
2019-01-31T04:11:01.466Z,98796.94
2019-01-31T04:13:31.447Z,98805.45
2019-01-31T04:16:01.435Z,98800.11
2019-01-31T04:18:31.670Z,98804.06
2019-01-31T04:21:03.212Z,98801.19
2019-01-31T04:23:33.619Z,98809.55
2019-01-31T04:26:07.620Z,98808.88
2019-01-31T04:28:38.083Z,98806.64
2019-01-31T04:31:07.875Z,98811.27
2019-01-31T04:33:37.626Z,98821.47
2019-01-31T04:36:07.976Z,98822.88
2019-01-31T04:38:37.709Z,98824.05
2019-01-31T04:41:07.484Z,98823.64
2019-01-31T04:43:37.936Z,98824.19
2019-01-31T04:46:07.721Z,98822.42
2019-01-31T04:48:37.762Z,98824.19
2019-01-31T04:51:08.225Z,98823.34
2019-01-31T04:53:38.403Z,98832.86
2019-01-31T04:56:08.800Z,98823.61
2019-01-31T04:58:38.665Z,98825.31
2019-01-31T05:01:08.598Z,98820.39
2019-01-31T05:03:39.048Z,98819.30
2019-01-31T05:06:09.191Z,98837.69
2019-01-31T05:08:39.600Z,98831.67
2019-01-31T05:11:10.296Z,98823.03
2019-01-31T05:13:40.446Z,98823.03
2019-01-31T05:16:10.784Z,98827.53
2019-01-31T05:18:40.805Z,98830.46
2019-01-31T05:21:11.415Z,98827.36
2019-01-31T05:23:41.656Z,98835.02
2019-01-31T05:26:11.790Z,98828.69
2019-01-31T05:28:41.886Z,98828.77
2019-01-31T05:31:12.917Z,98830.11
2019-01-31T05:33:42.723Z,98831.52
2019-01-31T05:36:12.804Z,98837.42
2019-01-31T05:38:43.095Z,98836.27
2019-01-31T05:41:13.531Z,98839.48
2019-01-31T05:43:43.937Z,98835.31
2019-01-31T05:46:14.049Z,98845.14
2019-01-31T05:48:44.466Z,98845.89
2019-01-31T05:51:14.892Z,98842.89
2019-01-31T05:53:45.009Z,98838.81
2019-01-31T05:56:14.522Z,98846.27
2019-01-31T05:58:44.954Z,98838.23
2019-01-31T06:01:15.780Z,98835.72
2019-01-31T06:03:45.864Z,98842.13
2019-01-31T06:06:16.473Z,98847.53
2019-01-31T06:08:46.339Z,98843.43
2019-01-31T06:11:16.767Z,98847.77
2019-01-31T06:13:47.187Z,98858.45
2019-01-31T06:16:17.002Z,98854.90
2019-01-31T06:18:46.828Z,98859.17
2019-01-31T06:21:16.650Z,98856.77
2019-01-31T06:23:46.644Z,98862.23
2019-01-31T06:26:17.370Z,98863.22
2019-01-31T06:28:47.711Z,98868.41
2019-01-31T06:31:17.952Z,98863.59
2019-01-31T06:33:47.777Z,98869.72
2019-01-31T06:36:18.381Z,98862.05
2019-01-31T06:38:48.781Z,98868.88
2019-01-31T06:41:19.037Z,98868.08
2019-01-31T06:43:49.307Z,98874.78
2019-01-31T06:46:19.265Z,98874.78
2019-01-31T06:48:49.008Z,98878.48
2019-01-31T06:51:19.787Z,98878.48
2019-01-31T06:53:49.679Z,98893.81
2019-01-31T06:56:19.409Z,98897.88
2019-01-31T06:58:49.678Z,98899.75
2019-01-31T07:01:20.161Z,98907.13
2019-01-31T07:03:50.359Z,98916.23
2019-01-31T07:06:20.355Z,98911.69
2019-01-31T07:08:50.865Z,98908.33
2019-01-31T07:11:29.655Z,98916.38
2019-01-31T07:13:54.773Z,98918.47
2019-01-31T07:16:25.432Z,98921.19
2019-01-31T07:18:55.692Z,98926.02
2019-01-31T07:21:25.962Z,98925.74
2019-01-31T07:23:56.216Z,98936.38
2019-01-31T07:26:26.709Z,98933.73
2019-01-31T07:28:57.155Z,98940.31
2019-01-31T07:31:28.677Z,98941.86
2019-01-31T07:33:58.462Z,98941.99
2019-01-31T07:36:28.501Z,98942.78
2019-01-31T07:38:58.833Z,98943.80
2019-01-31T07:41:29.062Z,98948.03
2019-01-31T07:43:59.389Z,98946.80
2019-01-31T07:46:29.393Z,98949.00
2019-01-31T07:48:59.693Z,98951.48
2019-01-31T07:51:30.349Z,98947.23
2019-01-31T07:54:00.940Z,98949.13
2019-01-31T07:56:31.998Z,98952.48
2019-01-31T07:59:01.995Z,98954.33
2019-01-31T08:01:32.591Z,98954.33
2019-01-31T08:04:03.640Z,98959.46
2019-01-31T08:06:33.926Z,98955.79
2019-01-31T08:09:05.150Z,98953.88
2019-01-31T08:11:36.832Z,98956.31
2019-01-31T08:14:07.767Z,98953.30
2019-01-31T08:16:38.287Z,98947.84
2019-01-31T08:19:09.493Z,98955.84
2019-01-31T08:21:41.116Z,98951.16
2019-01-31T08:24:11.366Z,98961.39
2019-01-31T08:26:41.674Z,98962.78
2019-01-31T08:29:11.855Z,98966.77
2019-01-31T08:31:42.471Z,98971.77
2019-01-31T08:34:13.255Z,98973.88
2019-01-31T08:36:43.264Z,98969.38
2019-01-31T08:39:14.049Z,98976.20
2019-01-31T08:41:45.026Z,98971.52
2019-01-31T08:44:21.006Z,98971.05
2019-01-31T08:46:51.420Z,98976.57
2019-01-31T08:49:23.212Z,98974.91
2019-01-31T08:51:55.621Z,98972.05
2019-01-31T08:54:26.703Z,98974.05
2019-01-31T08:56:56.871Z,98971.29
2019-01-31T08:59:27.458Z,98976.34
2019-01-31T09:01:59.021Z,98968.91
2019-01-31T09:04:28.899Z,98983.05
2019-01-31T09:06:59.399Z,98982.05
2019-01-31T09:09:35.793Z,98982.80
2019-01-31T09:12:14.961Z,98982.80
2019-01-31T09:14:38.343Z,98989.11
2019-01-31T09:17:09.190Z,98985.05
2019-01-31T09:19:39.805Z,98990.93
2019-01-31T09:22:35.080Z,98994.19
2019-01-31T09:25:34.451Z,98994.87
2019-01-31T09:28:24.019Z,98994.18
2019-01-31T09:31:27.707Z,98998.39
2019-01-31T09:34:26.989Z,99000.27
2019-01-31T09:37:25.853Z,98980.37
2019-01-31T09:40:17.191Z,99000.08
2019-01-31T09:43:29.223Z,99005.92
2019-01-31T09:46:27.878Z,99001.47
2019-01-31T09:49:27.724Z,99003.84
2019-01-31T09:52:35.549Z,98992.88
2019-01-31T09:55:56.343Z,99001.86
2019-01-31T09:58:37.217Z,99010.33
2019-01-31T10:01:39.684Z,99005.04
2019-01-31T10:05:01.001Z,99006.11
2019-01-31T10:08:04.619Z,99011.80
2019-01-31T10:11:09.635Z,99008.99
2019-01-31T10:14:16.577Z,99008.16
2019-01-31T10:17:27.243Z,99007.94
2019-01-31T10:20:28.233Z,99007.94
2019-01-31T10:23:25.663Z,99005.75
2019-01-31T10:26:20.973Z,98999.14
2019-01-31T10:29:11.932Z,99000.48
2019-01-31T10:32:15.419Z,98997.62
2019-01-31T10:35:29.254Z,98995.89
2019-01-31T10:38:37.581Z,98998.92
2019-01-31T10:41:37.071Z,98997.65
2019-01-31T10:44:45.489Z,98999.44
2019-01-31T10:47:34.803Z,98996.02
2019-01-31T10:50:37.585Z,99003.42
2019-01-31T10:53:58.309Z,98990.26
2019-01-31T10:57:01.443Z,98981.72
2019-01-31T11:00:21.393Z,98986.73
2019-01-31T11:03:27.699Z,98980.72
2019-01-31T11:06:24.552Z,98980.92
2019-01-31T11:09:27.226Z,98976.73
2019-01-31T11:13:00.806Z,98974.89
2019-01-31T11:15:53.585Z,98977.75
2019-01-31T11:18:46.028Z,98974.00
2019-01-31T11:21:39.397Z,98977.00
2019-01-31T11:24:27.413Z,98972.06
2019-01-31T11:27:24.176Z,98971.44
2019-01-31T11:30:32.391Z,98971.50
2019-01-31T11:33:27.703Z,98966.41
2019-01-31T11:36:49.246Z,98961.62
2019-01-31T11:40:16.031Z,98961.78
2019-01-31T11:43:11.876Z,98968.36
2019-01-31T11:46:15.307Z,98958.95
2019-01-31T11:48:52.950Z,98955.84
2019-01-31T11:52:13.379Z,98956.63
2019-01-31T11:55:17.426Z,98951.71
2019-01-31T11:58:12.534Z,98945.50
2019-01-31T12:00:42.834Z,98934.56
2019-01-31T12:03:13.650Z,98946.98
2019-01-31T12:05:45.210Z,98942.03
2019-01-31T12:08:16.254Z,98944.51
2019-01-31T12:10:46.659Z,98940.45
2019-01-31T12:13:23.562Z,98935.97
2019-01-31T12:15:50.944Z,98935.03
2019-01-31T12:18:21.961Z,98929.88
2019-01-31T12:20:52.279Z,98929.80
2019-01-31T12:23:23.587Z,98922.73
2019-01-31T12:26:02.755Z,98923.55
2019-01-31T12:28:37.731Z,98919.39
2019-01-31T12:31:10.342Z,98922.83
2019-01-31T12:33:42.126Z,98909.80
2019-01-31T12:36:12.117Z,98917.70
2019-01-31T12:38:42.149Z,98920.16
2019-01-31T12:41:12.437Z,98918.11
2019-01-31T12:43:43.475Z,98916.73
2019-01-31T12:46:14.206Z,98912.47
2019-01-31T12:48:43.868Z,98919.55
2019-01-31T12:51:14.863Z,98927.69
2019-01-31T12:53:45.054Z,98923.81
2019-01-31T12:56:14.847Z,98920.47
2019-01-31T12:58:44.344Z,98921.41
2019-01-31T13:01:14.378Z,98918.66
2019-01-31T13:03:44.265Z,98912.58
2019-01-31T13:06:14.171Z,98916.89
2019-01-31T13:08:44.814Z,98907.33
2019-01-31T13:11:15.167Z,98909.39
2019-01-31T13:13:46.235Z,98900.50
2019-01-31T13:16:16.390Z,98900.38
2019-01-31T13:18:45.959Z,98891.59
2019-01-31T13:21:15.556Z,98898.30
2019-01-31T13:23:45.505Z,98905.08
2019-01-31T13:26:17.216Z,98906.05
2019-01-31T13:28:46.715Z,98896.70
2019-01-31T13:31:16.477Z,98902.13
2019-01-31T13:33:46.856Z,98906.78
2019-01-31T13:36:17.316Z,98900.11
2019-01-31T13:38:47.967Z,98897.22
2019-01-31T13:41:20.604Z,98895.87
2019-01-31T13:43:57.596Z,98898.70
2019-01-31T13:46:24.015Z,98898.40
2019-01-31T13:48:54.656Z,98891.28
2019-01-31T13:51:24.230Z,98895.56
2019-01-31T13:53:53.970Z,98898.78
2019-01-31T13:56:24.001Z,98898.95
2019-01-31T13:58:53.514Z,98903.45
2019-01-31T14:01:23.208Z,98895.95
2019-01-31T14:03:53.580Z,98895.31
2019-01-31T14:06:23.990Z,98897.28
2019-01-31T14:08:55.040Z,98904.58
2019-01-31T14:11:25.495Z,98897.63
2019-01-31T14:13:55.945Z,98899.14
2019-01-31T14:16:25.720Z,98895.78
2019-01-31T14:18:55.675Z,98897.05
2019-01-31T14:21:30.293Z,98899.94
2019-01-31T14:24:00.367Z,98893.89
2019-01-31T14:26:33.760Z,98902.51
2019-01-31T14:29:03.557Z,98896.70
2019-01-31T14:31:33.802Z,98890.28
2019-01-31T14:34:04.689Z,98892.84
2019-01-31T14:36:34.201Z,98894.33
2019-01-31T14:39:06.844Z,98896.30
2019-01-31T14:41:37.315Z,98890.88
2019-01-31T14:44:06.848Z,98894.91
2019-01-31T14:46:37.068Z,98892.34
2019-01-31T14:49:06.749Z,98894.77
2019-01-31T14:51:37.310Z,98891.05
2019-01-31T14:54:06.942Z,98896.41
2019-01-31T14:56:37.024Z,98896.18
2019-01-31T14:59:06.916Z,98888.27
2019-01-31T15:01:37.636Z,98888.27
2019-01-31T15:04:09.635Z,98892.38
2019-01-31T15:06:40.999Z,98892.96
2019-01-31T15:09:10.528Z,98895.24
2019-01-31T15:11:40.314Z,98900.22
2019-01-31T15:14:10.128Z,98901.34
2019-01-31T15:16:39.862Z,98896.08
2019-01-31T15:19:10.445Z,98902.58
2019-01-31T15:21:40.292Z,98906.06
2019-01-31T15:24:12.269Z,98891.68
2019-01-31T15:26:41.889Z,98900.77
2019-01-31T15:29:13.302Z,98901.17
2019-01-31T15:31:43.926Z,98902.79
2019-01-31T15:34:14.499Z,98900.33
2019-01-31T15:36:45.102Z,98901.69
2019-01-31T15:39:15.223Z,98894.06
2019-01-31T15:41:45.188Z,98894.36
2019-01-31T15:44:15.839Z,98895.72
2019-01-31T15:46:45.336Z,98893.11
2019-01-31T15:49:14.920Z,98901.59
2019-01-31T15:51:44.899Z,98895.42
2019-01-31T15:54:16.561Z,98897.45
2019-01-31T15:56:48.475Z,98901.19
2019-01-31T15:59:19.400Z,98894.84
2019-01-31T16:01:49.526Z,98892.70
2019-01-31T16:04:19.934Z,98898.70
2019-01-31T16:06:49.955Z,98895.48
2019-01-31T16:09:24.088Z,98903.98
2019-01-31T16:11:53.634Z,98903.31
2019-01-31T16:14:24.001Z,98902.89
2019-01-31T16:16:55.024Z,98901.28
2019-01-31T16:19:24.750Z,98902.29
2019-01-31T16:21:54.294Z,98906.41
2019-01-31T16:24:26.178Z,98902.29
2019-01-31T16:26:55.739Z,98908.98
2019-01-31T16:29:25.319Z,98902.05
2019-01-31T16:31:54.859Z,98906.30
2019-01-31T16:34:24.432Z,98899.14
2019-01-31T16:36:54.318Z,98900.61
2019-01-31T16:39:24.238Z,98895.77
2019-01-31T16:41:53.791Z,98894.16
2019-01-31T16:44:23.285Z,98895.09
2019-01-31T16:46:53.084Z,98894.08
2019-01-31T16:49:22.585Z,98898.33
2019-01-31T16:51:52.124Z,98895.26
2019-01-31T16:54:21.946Z,98895.58
2019-01-31T16:56:51.550Z,98894.80
2019-01-31T16:59:21.190Z,98894.33
2019-01-31T17:01:50.801Z,98893.88
2019-01-31T17:04:20.349Z,98891.66
2019-01-31T17:06:49.961Z,98893.41
2019-01-31T17:09:19.498Z,98888.67
2019-01-31T17:11:49.291Z,98892.65
2019-01-31T17:14:19.758Z,98885.19
2019-01-31T17:16:49.285Z,98883.58
2019-01-31T17:19:18.821Z,98883.29
2019-01-31T17:21:48.543Z,98885.19
2019-01-31T17:24:18.383Z,98879.00
2019-01-31T17:26:48.033Z,98877.50
2019-01-31T17:29:17.758Z,98876.11
2019-01-31T17:31:47.357Z,98879.11
2019-01-31T17:34:16.848Z,98885.96
2019-01-31T17:36:46.640Z,98880.56
2019-01-31T17:39:16.187Z,98872.97
2019-01-31T17:41:45.782Z,98878.14
2019-01-31T17:44:15.698Z,98872.56
2019-01-31T17:46:45.501Z,98877.27
2019-01-31T17:49:15.032Z,98872.25
2019-01-31T17:51:44.620Z,98874.65
2019-01-31T17:54:14.190Z,98863.36
2019-01-31T17:56:43.666Z,98867.05
2019-01-31T17:59:13.337Z,98868.62
2019-01-31T18:01:43.258Z,98868.72
2019-01-31T18:04:12.783Z,98873.56
2019-01-31T18:06:42.370Z,98869.50
2019-01-31T18:09:12.699Z,98866.81
2019-01-31T18:11:42.202Z,98866.69
2019-01-31T18:14:12.292Z,98862.47
2019-01-31T18:16:42.079Z,98863.37
2019-01-31T18:19:11.591Z,98862.06
2019-01-31T18:21:41.068Z,98863.47
2019-01-31T18:24:10.542Z,98867.99
2019-01-31T18:26:40.087Z,98865.47
2019-01-31T18:29:09.586Z,98870.12
2019-01-31T18:31:39.270Z,98870.11
2019-01-31T18:34:08.751Z,98862.06
2019-01-31T18:36:38.225Z,98861.69
2019-01-31T18:39:09.815Z,98862.64
2019-01-31T18:41:39.515Z,98856.08
2019-01-31T18:44:11.067Z,98863.22
2019-01-31T18:46:40.887Z,98862.78
2019-01-31T18:49:10.508Z,98866.17
2019-01-31T18:51:40.746Z,98857.33
2019-01-31T18:54:12.588Z,98860.24
2019-01-31T18:56:42.331Z,98856.00
2019-01-31T18:59:12.000Z,98860.02
2019-01-31T19:01:41.926Z,98865.69
2019-01-31T19:04:12.237Z,98863.14
2019-01-31T19:06:42.242Z,98863.92
2019-01-31T19:09:12.231Z,98863.50
2019-01-31T19:11:41.916Z,98853.81
2019-01-31T19:14:14.348Z,98857.77
2019-01-31T19:16:43.856Z,98866.56
2019-01-31T19:19:13.781Z,98869.54
2019-01-31T19:21:43.325Z,98872.14
2019-01-31T19:24:12.830Z,98872.14
2019-01-31T19:26:42.378Z,98874.74
2019-01-31T19:29:11.960Z,98870.90
2019-01-31T19:31:41.542Z,98862.67
2019-01-31T19:34:11.261Z,98860.22
2019-01-31T19:36:40.833Z,98860.89
2019-01-31T19:39:16.346Z,98862.25
2019-01-31T19:41:46.160Z,98866.83
2019-01-31T19:44:15.694Z,98863.52
2019-01-31T19:46:45.774Z,98857.73
2019-01-31T19:49:15.427Z,98854.39
2019-01-31T19:51:45.456Z,98862.44
2019-01-31T19:54:15.745Z,98853.40
2019-01-31T19:56:47.041Z,98856.99
2019-01-31T19:59:16.810Z,98858.55
2019-01-31T20:01:46.440Z,98849.92
2019-01-31T20:04:16.231Z,98849.66
2019-01-31T20:06:46.378Z,98850.86
2019-01-31T20:09:20.278Z,98845.33
2019-01-31T20:11:49.822Z,98827.95
2019-01-31T20:14:19.783Z,98843.23
2019-01-31T20:16:49.452Z,98834.44
2019-01-31T20:19:19.260Z,98838.09
2019-01-31T20:21:48.834Z,98836.47
2019-01-31T20:24:18.716Z,98836.36
2019-01-31T20:26:48.636Z,98837.63
2019-01-31T20:29:18.588Z,98843.67
2019-01-31T20:31:48.261Z,98837.97
2019-01-31T20:34:18.291Z,98843.84
2019-01-31T20:36:47.907Z,98826.09
2019-01-31T20:39:18.376Z,98833.81
2019-01-31T20:41:54.238Z,98834.68
2019-01-31T20:44:20.553Z,98835.34
2019-01-31T20:46:50.206Z,98822.97
2019-01-31T20:49:20.030Z,98822.97
2019-01-31T20:51:49.946Z,98830.72
2019-01-31T20:54:19.627Z,98818.12
2019-01-31T20:56:51.256Z,98824.91
2019-01-31T20:59:21.537Z,98827.08
2019-01-31T21:01:51.162Z,98827.42
2019-01-31T21:04:20.890Z,98825.45
2019-01-31T21:06:50.455Z,98823.64
2019-01-31T21:09:20.357Z,98826.87
2019-01-31T21:11:50.090Z,98812.05
2019-01-31T21:14:19.794Z,98814.56
2019-01-31T21:16:51.967Z,98810.95
2019-01-31T21:19:20.724Z,98811.59
2019-01-31T21:21:50.237Z,98809.63
2019-01-31T21:24:21.174Z,98806.13
2019-01-31T21:26:50.784Z,98804.77
2019-01-31T21:29:20.319Z,98804.04
2019-01-31T21:31:49.889Z,98802.05
2019-01-31T21:34:19.566Z,98801.44
2019-01-31T21:36:49.232Z,98795.22
2019-01-31T21:39:19.010Z,98793.17
2019-01-31T21:41:48.598Z,98799.77
2019-01-31T21:44:18.635Z,98793.61
2019-01-31T21:46:48.187Z,98788.75
2019-01-31T21:49:18.539Z,98790.98
2019-01-31T21:51:48.612Z,98784.30
2019-01-31T21:54:18.197Z,98784.80
2019-01-31T21:56:48.027Z,98789.36
2019-01-31T21:59:18.582Z,98779.08
2019-01-31T22:01:48.140Z,98780.31
2019-01-31T22:04:18.070Z,98771.02
2019-01-31T22:06:48.335Z,98775.75
2019-01-31T22:09:17.863Z,98771.22
2019-01-31T22:11:47.726Z,98773.41
2019-01-31T22:14:17.346Z,98763.73
2019-01-31T22:16:46.916Z,98761.66
2019-01-31T22:19:16.605Z,98749.11
2019-01-31T22:21:46.770Z,98754.17
2019-01-31T22:24:16.579Z,98749.34
2019-01-31T22:26:46.203Z,98753.02
2019-01-31T22:29:15.807Z,98765.17
2019-01-31T22:31:45.883Z,98757.27
2019-01-31T22:34:16.046Z,98747.59
2019-01-31T22:36:45.753Z,98752.81
2019-01-31T22:39:16.192Z,98757.49
2019-01-31T22:41:45.719Z,98754.78
2019-01-31T22:44:15.678Z,98748.63
2019-01-31T22:46:46.128Z,98745.06
2019-01-31T22:49:16.705Z,98745.83
2019-01-31T22:51:46.783Z,98740.53
2019-01-31T22:54:17.166Z,98740.12
2019-01-31T22:56:46.744Z,98742.33
2019-01-31T22:59:16.656Z,98732.77
2019-01-31T23:01:59.247Z,98733.80
2019-01-31T23:04:29.097Z,98726.16
2019-01-31T23:06:59.830Z,98725.17
2019-01-31T23:09:29.395Z,98716.85
2019-01-31T23:11:58.993Z,98705.97
2019-01-31T23:14:28.793Z,98691.17
2019-01-31T23:16:58.565Z,98691.58
2019-01-31T23:19:30.527Z,98686.81
2019-01-31T23:22:00.020Z,98680.51
2019-01-31T23:24:30.779Z,98685.30
2019-01-31T23:27:00.270Z,98689.09
2019-01-31T23:29:30.111Z,98689.92
2019-01-31T23:31:59.977Z,98685.35
2019-01-31T23:34:29.916Z,98693.19
2019-01-31T23:36:59.398Z,98686.23
2019-01-31T23:39:29.263Z,98691.27
2019-01-31T23:41:58.792Z,98682.31
2019-01-31T23:44:29.009Z,98678.70
2019-01-31T23:46:58.772Z,98670.33
2019-01-31T23:49:28.819Z,98667.33
2019-01-31T23:51:58.311Z,98651.73
2019-01-31T23:54:28.589Z,98660.80
2019-01-31T23:56:58.326Z,98657.69
2019-01-31T23:59:27.833Z,98666.14
